Hamburg, Michigan
Current Conditions -  °F | °C
As of 1:54 PM on Friday 31 Oct 2014 (Local Time) from KOZW Reporting Station
Light Rain Light Rain  
Wind Chill: 31°   Ceiling: 1400
Heat Index: 37°   Visibility: 7mi
Dew Point: 36°   Wind: 9mph
Humidity: 94%   Direction: 340°NNW
Pressure: 29.91"   Gusts: 20mph
Location:  42.45°N, 83.8°W
Report Text: KOZW 311754Z AUTO 34008G17KT 7SM -RA SCT009 OVC014 03/02 A2991 RMK AO2 T00290020
Loading
Personal Weather Stations






























Interactive Weather Map
Tropical Storm Tracking
New forecast layout! Learn more

10-Day Weather Forecast

Advertisements
Track Severe Weather on mobile